Time;durP1;ratioP1;P1;durP2;ratioP2;P2;SDS_P1;SDS_P2;PMS_P1;PMS_P2;Temp;Humidity;BMP_temperature;BMP_pressure;BME280_temperature;BME280_humidity;BME280_pressure;Samples;Min_cycle;Max_cycle;Signal;HPM_P1;HPM_P2
2020/12/14 00:02:21;;;;;;;;;;;;;;;;;;5052270;28;19936;-71
2020/12/14 00:04:48;;;;;;;;;;;;;;;;;;5052317;28;20037;-67
2020/12/14 00:07:15;;;;;;;;;;;;;;;;;;5052032;28;20020;-66
2020/12/14 00:09:42;;;;;;;;;;;;;;;;;;5047160;28;19972;-67
2020/12/14 00:12:10;;;;;;;;;;;;;;;;;;5052962;28;20388;-67
2020/12/14 00:14:39;;;;;;;;;;;;;;;;;;5052081;28;19978;-71
2020/12/14 00:17:06;;;;;;;;;;;;;;;;;;5049899;28;19967;-67
2020/12/14 00:19:33;;;;;;;;;;;;;;;;;;5051791;28;19948;-72
2020/12/14 00:22:00;;;;;;;;;;;;;;;;;;5052838;28;19931;-67
2020/12/14 00:24:28;;;;;;;;;;;;;;;;;;5052306;28;20054;-67
2020/12/14 00:26:55;;;;;;;;;;;;;;;;;;5051230;28;19943;-68
2020/12/14 00:29:22;;;;;;;;;;;;;;;;;;5050830;28;20008;-67
2020/12/14 00:31:49;;;;;;;;;;;;;;;;;;5052098;28;20427;-68
2020/12/14 00:34:16;;;;;;;;;;;;;;;;;;5045883;28;19929;-67
2020/12/14 00:37:00;;;;;;;;;;;;;;;;;;5052485;28;20083;-68
2020/12/14 00:39:27;;;;;;;;;;;;;;;;;;5050472;28;19964;-67
2020/12/14 00:41:54;;;;;;;;;;;;;;;;;;5072167;28;19929;-73
2020/12/14 00:44:22;;;;;;;;;;;;;;;;;;5057666;28;20292;-66
2020/12/14 00:46:49;;;;;;;;;;;;;;;;;;5066425;28;20037;-66
2020/12/14 00:49:16;;;;;;;;;;;;;;;;;;5069983;28;20387;-67
2020/12/14 00:51:43;;;;;;;;;;;;;;;;;;5050159;28;20269;-71
2020/12/14 00:54:10;;;;;;;;;;;;;;;;;;5051289;28;19933;-68
2020/12/14 00:56:38;;;;;;;;;;;;;;;;;;5051355;28;19972;-70
2020/12/14 00:59:05;;;;;;;;;;;;;;;;;;5052260;28;19948;-68
2020/12/14 01:01:32;;;;;;;;;;;;;;;;;;5047458;28;20376;-67
2020/12/14 01:03:59;;;;;;;;;;;;;;;;;;5052743;28;20344;-70
2020/12/14 01:06:26;;;;;;;;;;;;;;;;;;5047311;28;20023;-75
2020/12/14 01:08:54;;;;;;;;;;;;;;;;;;5049991;28;20032;-68
2020/12/14 01:11:23;;;;;;;;;;;;;;;;;;5050477;28;20345;-72
2020/12/14 01:13:50;;;;;;;;;;;;;;;;;;5051784;28;20019;-68
2020/12/14 01:16:18;;;;;;;;;;;;;;;;;;5051747;28;19929;-67
2020/12/14 01:18:45;;;;;;;;;;;;;;;;;;5050190;28;19928;-67
2020/12/14 01:21:12;;;;;;;;;;;;;;;;;;5051046;28;19951;-70
2020/12/14 01:23:39;;;;;;;;;;;;;;;;;;5051101;28;19928;-68
2020/12/14 01:26:06;;;;;;;;;;;;;;;;;;5050331;28;19970;-71
2020/12/14 01:28:34;;;;;;;;;;;;;;;;;;5051150;28;19929;-70
2020/12/14 01:31:01;;;;;;;;;;;;;;;;;;5033579;28;20019;-70
2020/12/14 01:33:28;;;;;;;;;;;;;;;;;;5050849;28;19929;-68
2020/12/14 01:35:56;;;;;;;;;;;;;;;;;;5050412;28;19993;-70
2020/12/14 01:38:23;;;;;;;;;;;;;;;;;;5050508;28;19999;-67
2020/12/14 01:40:50;;;;;;;;;;;;;;;;;;5050259;28;20283;-67
2020/12/14 01:43:17;;;;;;;;;;;;;;;;;;5050364;28;19929;-67
2020/12/14 01:45:44;;;;;;;;;;;;;;;;;;5049646;28;19929;-66
2020/12/14 01:48:12;;;;;;;;;;;;;;;;;;5049411;28;19980;-74
2020/12/14 01:50:39;;;;;;;;;;;;;;;;;;5049385;28;20019;-74
2020/12/14 01:53:06;;;;;;;;;;;;;;;;;;5048379;28;19925;-67
2020/12/14 01:55:33;;;;;;;;;;;;;;;;;;5050187;28;20037;-68
2020/12/14 01:58:00;;;;;;;;;;;;;;;;;;5050254;28;19931;-67
2020/12/14 02:00:27;;;;;;;;;;;;;;;;;;5054447;28;19966;-68
2020/12/14 02:05:29;;;;;;;;;;;;;;;;;;5071159;28;19999;-64
2020/12/14 02:07:56;;;;;;;;;;;;;;;;;;5072518;28;20259;-63
2020/12/14 02:10:24;;;;;;;;;;;;;;;;;;5072710;28;20322;-62
2020/12/14 02:12:51;;;;;;;;;;;;;;;;;;5073111;28;19947;-63
2020/12/14 02:15:18;;;;;;;;;;;;;;;;;;5073874;28;19969;-63
2020/12/14 02:17:45;;;;;;;;;;;;;;;;;;5073740;28;19967;-63
2020/12/14 02:20:13;;;;;;;;;;;;;;;;;;5074181;28;19924;-64
2020/12/14 02:22:40;;;;;;;;;;;;;;;;;;5073827;28;20439;-63
2020/12/14 02:25:07;;;;;;;;;;;;;;;;;;5075100;28;19924;-62
2020/12/14 02:27:34;;;;;;;;;;;;;;;;;;5073819;28;20022;-63
2020/12/14 02:30:01;;;;;;;;;;;;;;;;;;5074685;28;19925;-63
2020/12/14 02:32:29;;;;;;;;;;;;;;;;;;5073773;28;19998;-62
2020/12/14 02:34:56;;;;;;;;;;;;;;;;;;5073769;28;19925;-62
2020/12/14 02:37:23;;;;;;;;;;;;;;;;;;5073320;28;20419;-62
2020/12/14 02:39:50;;;;;;;;;;;;;;;;;;5073569;28;19924;-63
2020/12/14 02:42:18;;;;;;;;;;;;;;;;;;5073219;28;19931;-63
2020/12/14 02:44:45;;;;;;;;;;;;;;;;;;5073479;28;20027;-63
2020/12/14 02:47:12;;;;;;;;;;;;;;;;;;5073548;28;19930;-63
2020/12/14 02:49:39;;;;;;;;;;;;;;;;;;5073003;28;20275;-62
2020/12/14 02:52:06;;;;;;;;;;;;;;;;;;5073004;28;19931;-63
2020/12/14 02:54:34;;;;;;;;;;;;;;;;;;5070342;28;20299;-63
2020/12/14 02:57:01;;;;;;;;;;;;;;;;;;5070637;28;19924;-63
2020/12/14 02:59:28;;;;;;;;;;;;;;;;;;5068341;28;19924;-63
2020/12/14 03:01:55;;;;;;;;;;;;;;;;;;5070442;28;19931;-62
2020/12/14 03:04:23;;;;;;;;;;;;;;;;;;5068683;28;19929;-63
2020/12/14 03:06:50;;;;;;;;;;;;;;;;;;5069711;28;19924;-62
2020/12/14 03:09:17;;;;;;;;;;;;;;;;;;5067920;28;19928;-63
2020/12/14 03:11:44;;;;;;;;;;;;;;;;;;5068723;28;19937;-65
2020/12/14 03:14:11;;;;;;;;;;;;;;;;;;5068644;28;19967;-63
2020/12/14 03:16:38;;;;;;;;;;;;;;;;;;5071995;28;20007;-63
2020/12/14 03:19:05;;;;;;;;;;;;;;;;;;5072146;28;20376;-63
2020/12/14 03:21:32;;;;;;;;;;;;;;;;;;5072556;28;19928;-62
2020/12/14 03:23:59;;;;;;;;;;;;;;;;;;5072622;28;20393;-62
2020/12/14 03:26:27;;;;;;;;;;;;;;;;;;5072640;28;19931;-62
2020/12/14 03:28:54;;;;;;;;;;;;;;;;;;5071379;28;20027;-63
2020/12/14 03:31:21;;;;;;;;;;;;;;;;;;5072250;28;20372;-63
2020/12/14 03:33:48;;;;;;;;;;;;;;;;;;5067321;28;20414;-64
2020/12/14 03:36:15;;;;;;;;;;;;;;;;;;5072691;28;19958;-63
2020/12/14 03:38:42;;;;;;;;;;;;;;;;;;5072676;28;20327;-63
2020/12/14 03:41:09;;;;;;;;;;;;;;;;;;5071299;28;19928;-63
2020/12/14 03:43:36;;;;;;;;;;;;;;;;;;5068063;28;20447;-63
2020/12/14 03:46:04;;;;;;;;;;;;;;;;;;5072569;28;19934;-63
2020/12/14 03:48:31;;;;;;;;;;;;;;;;;;5072055;28;20466;-63
2020/12/14 03:50:58;;;;;;;;;;;;;;;;;;5072544;28;19924;-63
2020/12/14 03:53:25;;;;;;;;;;;;;;;;;;5071812;28;20431;-63
2020/12/14 03:55:52;;;;;;;;;;;;;;;;;;5072886;28;20011;-63
2020/12/14 03:58:19;;;;;;;;;;;;;;;;;;5070012;28;19956;-64
2020/12/14 04:00:47;;;;;;;;;;;;;;;;;;5072024;28;20382;-63
2020/12/14 04:03:14;;;;;;;;;;;;;;;;;;5071649;28;19935;-63
2020/12/14 04:05:42;;;;;;;;;;;;;;;;;;5072351;28;20364;-63
2020/12/14 04:08:09;;;;;;;;;;;;;;;;;;5071043;28;19999;-63
2020/12/14 04:10:36;;;;;;;;;;;;;;;;;;5071772;28;19924;-62
2020/12/14 04:13:04;;;;;;;;;;;;;;;;;;5070705;28;20375;-63
2020/12/14 04:15:31;;;;;;;;;;;;;;;;;;5062024;28;19924;-62
2020/12/14 04:17:58;;;;;;;;;;;;;;;;;;5069544;28;20314;-62
2020/12/14 04:20:25;;;;;;;;;;;;;;;;;;5071817;28;20030;-62
2020/12/14 04:22:58;;;;;;;;;;;;;;;;;;1530951;28;10022072;-63
2020/12/14 04:25:26;;;;;;;;;;;;;;;;;;3969314;28;10001136;-63
2020/12/14 04:27:57;;;;;;;;;;;;;;;;;;5012008;28;19932;-63
2020/12/14 04:30:24;;;;;;;;;;;;;;;;;;5010319;28;19973;-63
2020/12/14 04:32:51;;;;;;;;;;;;;;;;;;5010038;28;19936;-64
2020/12/14 04:35:19;;;;;;;;;;;;;;;;;;5012174;28;19997;-63
2020/12/14 04:37:46;;;;;;;;;;;;;;;;;;5011729;28;20012;-63
2020/12/14 04:40:13;;;;;;;;;;;;;;;;;;5011025;28;20019;-63
2020/12/14 04:42:40;;;;;;;;;;;;;;;;;;5011403;28;19940;-63
2020/12/14 04:45:07;;;;;;;;;;;;;;;;;;5012206;28;19981;-63
2020/12/14 04:47:34;;;;;;;;;;;;;;;;;;5012522;28;20263;-63
2020/12/14 04:50:02;;;;;;;;;;;;;;;;;;5011072;28;20028;-62
2020/12/14 04:52:29;;;;;;;;;;;;;;;;;;5012007;28;20016;-62
2020/12/14 04:54:56;;;;;;;;;;;;;;;;;;5011819;28;19930;-63
2020/12/14 04:57:23;;;;;;;;;;;;;;;;;;5011325;28;19929;-63
2020/12/14 04:59:50;;;;;;;;;;;;;;;;;;4996851;28;19925;-62
2020/12/14 05:02:18;;;;;;;;;;;;;;;;;;5011961;28;19929;-62
2020/12/14 05:04:45;;;;;;;;;;;;;;;;;;5011006;28;20030;-62
2020/12/14 05:07:12;;;;;;;;;;;;;;;;;;5010210;28;20428;-63
2020/12/14 05:09:41;;;;;;;;;;;;;;;;;;5010725;28;19925;-63
2020/12/14 05:12:08;;;;;;;;;;;;;;;;;;5010757;28;20016;-63
2020/12/14 05:14:36;;;;;;;;;;;;;;;;;;5009775;28;20036;-63
2020/12/14 05:17:03;;;;;;;;;;;;;;;;;;5011434;28;20008;-65
2020/12/14 05:19:30;;;;;;;;;;;;;;;;;;5009662;28;20333;-62
2020/12/14 05:21:58;;;;;;;;;;;;;;;;;;5011650;28;19987;-62
2020/12/14 05:24:25;;;;;;;;;;;;;;;;;;5010874;28;19955;-62
2020/12/14 05:26:52;;;;;;;;;;;;;;;;;;5009833;28;20020;-62
2020/12/14 05:29:19;;;;;;;;;;;;;;;;;;5010514;28;19969;-62
2020/12/14 05:31:47;;;;;;;;;;;;;;;;;;5010600;28;20276;-62
2020/12/14 05:34:14;;;;;;;;;;;;;;;;;;4993643;28;19930;-62
2020/12/14 05:36:41;;;;;;;;;;;;;;;;;;5011126;28;20499;-65
2020/12/14 05:39:08;;;;;;;;;;;;;;;;;;5011208;28;19932;-64
2020/12/14 05:41:35;;;;;;;;;;;;;;;;;;5008320;28;19929;-62
2020/12/14 05:44:02;;;;;;;;;;;;;;;;;;5010744;28;19932;-62
2020/12/14 05:46:31;;;;;;;;;;;;;;;;;;5010713;28;20289;-62
2020/12/14 05:48:58;;;;;;;;;;;;;;;;;;5008038;28;19977;-63
2020/12/14 05:51:25;;;;;;;;;;;;;;;;;;5010908;28;19930;-65
2020/12/14 05:53:53;;;;;;;;;;;;;;;;;;5010562;28;20402;-62
2020/12/14 05:56:20;;;;;;;;;;;;;;;;;;5010804;28;19925;-62
2020/12/14 05:58:47;;;;;;;;;;;;;;;;;;5011012;28;20035;-62
2020/12/14 06:01:14;;;;;;;;;;;;;;;;;;5009935;28;19983;-62
2020/12/14 06:03:41;;;;;;;;;;;;;;;;;;5007061;28;20308;-64
2020/12/14 06:06:09;;;;;;;;;;;;;;;;;;5009820;28;20012;-62
2020/12/14 06:08:36;;;;;;;;;;;;;;;;;;5010334;28;19980;-62
2020/12/14 06:11:03;;;;;;;;;;;;;;;;;;5009130;28;20048;-64
2020/12/14 06:13:30;;;;;;;;;;;;;;;;;;5008230;28;19961;-64
2020/12/14 06:16:00;;;;;;;;;;;;;;;;;;5010798;28;19988;-63
2020/12/14 06:18:27;;;;;;;;;;;;;;;;;;5009786;28;20025;-62
2020/12/14 06:20:54;;;;;;;;;;;;;;;;;;5010614;28;19930;-62
2020/12/14 06:23:21;;;;;;;;;;;;;;;;;;5007972;28;20307;-62
2020/12/14 06:25:49;;;;;;;;;;;;;;;;;;5009122;28;20021;-62
2020/12/14 06:28:16;;;;;;;;;;;;;;;;;;5009752;28;20384;-62
2020/12/14 06:30:43;;;;;;;;;;;;;;;;;;5010287;28;19929;-63
2020/12/14 06:33:12;;;;;;;;;;;;;;;;;;5001677;28;20396;-64
2020/12/14 06:35:40;;;;;;;;;;;;;;;;;;5010584;28;19925;-63
2020/12/14 06:38:07;;;;;;;;;;;;;;;;;;5010353;28;19925;-63
2020/12/14 06:40:34;;;;;;;;;;;;;;;;;;5002439;28;19965;-63
2020/12/14 06:43:01;;;;;;;;;;;;;;;;;;5008647;28;20015;-63
2020/12/14 06:45:28;;;;;;;;;;;;;;;;;;5007828;28;20024;-63
2020/12/14 06:47:55;;;;;;;;;;;;;;;;;;5005973;28;19940;-63
2020/12/14 06:50:22;;;;;;;;;;;;;;;;;;5006464;28;19929;-62
2020/12/14 06:52:50;;;;;;;;;;;;;;;;;;5010064;28;20299;-63
2020/12/14 06:55:17;;;;;;;;;;;;;;;;;;5006949;28;19940;-63
2020/12/14 06:57:44;;;;;;;;;;;;;;;;;;5009373;28;20027;-63
2020/12/14 07:00:11;;;;;;;;;;;;;;;;;;5009144;28;20036;-63
2020/12/14 07:02:39;;;;;;;;;;;;;;;;;;5005565;28;20020;-63
2020/12/14 07:05:06;;;;;;;;;;;;;;;;;;5005322;28;20015;-62
2020/12/14 07:07:33;;;;;;;;;;;;;;;;;;5009107;28;19934;-63
2020/12/14 07:10:00;;;;;;;;;;;;;;;;;;5007816;28;19931;-63
2020/12/14 07:12:27;;;;;;;;;;;;;;;;;;5000973;28;20625;-63
2020/12/14 07:14:55;;;;;;;;;;;;;;;;;;5007223;28;19929;-63
2020/12/14 07:17:22;;;;;;;;;;;;;;;;;;5009225;28;19933;-62
2020/12/14 07:19:49;;;;;;;;;;;;;;;;;;5005312;28;19930;-64
2020/12/14 07:22:16;;;;;;;;;;;;;;;;;;5008047;28;20128;-63
2020/12/14 07:24:44;;;;;;;;;;;;;;;;;;5008069;28;19930;-63
2020/12/14 07:27:11;;;;;;;;;;;;;;;;;;5009145;28;20341;-63
2020/12/14 07:29:38;;;;;;;;;;;;;;;;;;5006600;28;20428;-65
2020/12/14 07:32:06;;;;;;;;;;;;;;;;;;4997623;28;20373;-62
2020/12/14 07:34:33;;;;;;;;;;;;;;;;;;5006807;28;20309;-63
2020/12/14 07:37:00;;;;;;;;;;;;;;;;;;5008365;28;20012;-64
2020/12/14 07:39:27;;;;;;;;;;;;;;;;;;5009096;28;20391;-62
2020/12/14 07:41:55;;;;;;;;;;;;;;;;;;5010453;28;19930;-63
2020/12/14 07:44:22;;;;;;;;;;;;;;;;;;5004211;28;20008;-64
2020/12/14 07:46:49;;;;;;;;;;;;;;;;;;5001174;28;19944;-62
2020/12/14 07:49:20;;;;;;;;;;;;;;;;;;5000169;28;20021;-63
2020/12/14 07:51:48;;;;;;;;;;;;;;;;;;4970573;28;21668;-62
2020/12/14 07:54:15;;;;;;;;;;;;;;;;;;4980871;28;20020;-65
2020/12/14 07:56:42;;;;;;;;;;;;;;;;;;4983893;28;19941;-63
2020/12/14 07:59:09;;;;;;;;;;;;;;;;;;4981420;28;19934;-64
2020/12/14 08:01:37;;;;;;;;;;;;;;;;;;4982149;28;20381;-63
2020/12/14 08:04:04;;;;;;;;;;;;;;;;;;4985557;28;19929;-64
2020/12/14 08:06:31;;;;;;;;;;;;;;;;;;4973455;28;20020;-63
2020/12/14 08:08:58;;;;;;;;;;;;;;;;;;4981730;28;19929;-61
2020/12/14 08:11:26;;;;;;;;;;;;;;;;;;4980651;28;19938;-66
2020/12/14 08:13:53;;;;;;;;;;;;;;;;;;4982921;28;20044;-63
2020/12/14 08:16:20;;;;;;;;;;;;;;;;;;4994011;28;19936;-67
2020/12/14 08:18:48;;;;;;;;;;;;;;;;;;5005625;28;20261;-64
2020/12/14 08:21:15;;;;;;;;;;;;;;;;;;5003342;28;19929;-64
2020/12/14 08:23:43;;;;;;;;;;;;;;;;;;5002032;28;20289;-64
2020/12/14 08:26:10;;;;;;;;;;;;;;;;;;5012401;28;19940;-63
2020/12/14 08:28:37;;;;;;;;;;;;;;;;;;5013072;28;20365;-63
2020/12/14 08:31:05;;;;;;;;;;;;;;;;;;4997953;28;19930;-63
2020/12/14 08:33:33;;;;;;;;;;;;;;;;;;5008417;28;19937;-63
2020/12/14 08:36:00;;;;;;;;;;;;;;;;;;5001145;28;20304;-62
2020/12/14 08:38:28;;;;;;;;;;;;;;;;;;5006500;28;19929;-63
2020/12/14 08:40:55;;;;;;;;;;;;;;;;;;5002272;28;20383;-63
2020/12/14 08:43:23;;;;;;;;;;;;;;;;;;5001947;28;20019;-63
2020/12/14 08:45:50;;;;;;;;;;;;;;;;;;4999299;28;20210;-66
2020/12/14 08:48:18;;;;;;;;;;;;;;;;;;5002782;28;20428;-67
2020/12/14 08:50:45;;;;;;;;;;;;;;;;;;4994220;28;20378;-64
2020/12/14 08:53:12;;;;;;;;;;;;;;;;;;5000770;28;20401;-65
2020/12/14 08:55:39;;;;;;;;;;;;;;;;;;4998119;28;19953;-63
2020/12/14 08:58:07;;;;;;;;;;;;;;;;;;5002985;28;19933;-64
2020/12/14 09:00:34;;;;;;;;;;;;;;;;;;4997867;28;19929;-64
2020/12/14 09:03:01;;;;;;;;;;;;;;;;;;5000058;28;20393;-58
2020/12/14 09:05:29;;;;;;;;;;;;;;;;;;5009262;28;19929;-57
2020/12/14 09:07:57;;;;;;;;;;;;;;;;;;5011459;28;20008;-58
2020/12/14 09:10:28;;;;;;;;;;;;;;;;;;5009991;28;19936;-59
2020/12/14 09:12:55;;;;;;;;;;;;;;;;;;5008376;28;19925;-58
2020/12/14 09:15:34;;;;;;;;;;;;;;;;;;5003913;28;20028;-58
2020/12/14 09:18:02;;;;;;;;;;;;;;;;;;5000259;28;20036;-59
2020/12/14 09:20:29;;;;;;;;;;;;;;;;;;5008445;28;20436;-58
2020/12/14 09:22:57;;;;;;;;;;;;;;;;;;5006100;28;20288;-60
2020/12/14 09:25:24;;;;;;;;;;;;;;;;;;5004837;28;19949;-59
2020/12/14 09:27:51;;;;;;;;;;;;;;;;;;5002243;28;20369;-58
2020/12/14 09:30:19;;;;;;;;;;;;;;;;;;4999687;28;19929;-59
2020/12/14 09:32:46;;;;;;;;;;;;;;;;;;5005502;28;20663;-58
2020/12/14 09:35:14;;;;;;;;;;;;;;;;;;5007488;28;20290;-58
2020/12/14 09:37:41;;;;;;;;;;;;;;;;;;5001037;28;20365;-59
2020/12/14 09:40:09;;;;;;;;;;;;;;;;;;4996851;28;19995;-58
2020/12/14 09:42:36;;;;;;;;;;;;;;;;;;5005724;28;19976;-59
2020/12/14 09:47:40;;;;;;;;;;;;;;;;;;5380058;22;20418;-87
2020/12/14 09:50:08;;;;;;;;;;;;;;;;;;5059185;28;19931;-87
2020/12/14 09:52:35;;;;;;;;;;;;;;;;;;5070707;28;19963;-87
2020/12/14 09:55:03;;;;;;;;;;;;;;;;;;5071671;28;20366;-88
2020/12/14 09:57:31;;;;;;;;;;;;;;;;;;5071829;28;20031;-88
2020/12/14 09:59:58;;;;;;;;;;;;;;;;;;5070483;28;20360;-87
2020/12/14 10:02:25;;;;;;;;;;;;;;;;;;5065861;28;19925;-88
2020/12/14 10:05:08;;;;;;;;;;;;;;;;;;5067649;28;19925;-88
2020/12/14 10:07:35;;;;;;;;;;;;;;;;;;5071320;28;19964;-88
2020/12/14 10:10:03;;;;;;;;;;;;;;;;;;5070184;28;19928;-88
2020/12/14 10:12:30;;;;;;;;;;;;;;;;;;5071534;28;20066;-88
2020/12/14 10:14:58;;;;;;;;;;;;;;;;;;5070081;28;19925;-88
2020/12/14 10:17:25;;;;;;;;;;;;;;;;;;5069999;28;19925;-88
2020/12/14 10:19:54;;;;;;;;;;;;;;;;;;5069733;28;19951;-87
2020/12/14 10:22:21;;;;;;;;;;;;;;;;;;5069045;28;19978;-88
2020/12/14 10:24:48;;;;;;;;;;;;;;;;;;5071999;28;19978;-89
2020/12/14 10:27:16;;;;;;;;;;;;;;;;;;5077407;28;19924;-88
2020/12/14 10:29:43;;;;;;;;;;;;;;;;;;5075874;28;20051;-88
2020/12/14 10:32:11;;;;;;;;;;;;;;;;;;5074976;28;19924;-87
2020/12/14 10:34:38;;;;;;;;;;;;;;;;;;5061837;28;19932;-88
2020/12/14 10:37:06;;;;;;;;;;;;;;;;;;5074227;28;19971;-88
2020/12/14 10:39:33;;;;;;;;;;;;;;;;;;5065396;28;19958;-87
2020/12/14 10:42:01;;;;;;;;;;;;;;;;;;5075443;28;19924;-88
2020/12/14 10:44:30;;;;;;;;;;;;;;;;;;5075571;28;20003;-88
2020/12/14 10:46:57;;;;;;;;;;;;;;;;;;5072647;28;20282;-88
2020/12/14 10:49:25;;;;;;;;;;;;;;;;;;5073868;28;19975;-89
2020/12/14 10:51:52;;;;;;;;;;;;;;;;;;5061600;28;19979;-88
2020/12/14 10:54:19;;;;;;;;;;;;;;;;;;5068299;28;19928;-87
2020/12/14 10:56:47;;;;;;;;;;;;;;;;;;5063633;28;19928;-87
2020/12/14 10:59:14;;;;;;;;;;;;;;;;;;5061827;28;20454;-88
2020/12/14 11:01:41;;;;;;;;;;;;;;;;;;5068032;28;19924;-87
2020/12/14 11:04:09;;;;;;;;;;;;;;;;;;5067961;28;19925;-87
2020/12/14 11:06:36;;;;;;;;;;;;;;;;;;5065399;28;19924;-88
2020/12/14 11:09:04;;;;;;;;;;;;;;;;;;5061377;28;19929;-88
2020/12/14 11:11:31;;;;;;;;;;;;;;;;;;5068756;28;19948;-88
2020/12/14 11:13:59;;;;;;;;;;;;;;;;;;5069691;28;19936;-88
2020/12/14 11:16:27;;;;;;;;;;;;;;;;;;5065665;28;20337;-88
2020/12/14 11:18:55;;;;;;;;;;;;;;;;;;5061796;28;19939;-89
2020/12/14 11:21:24;;;;;;;;;;;;;;;;;;5065011;28;19929;-89
2020/12/14 11:23:52;;;;;;;;;;;;;;;;;;5063181;28;19959;-90
2020/12/14 11:26:19;;;;;;;;;;;;;;;;;;5062491;28;19935;-90
2020/12/14 11:28:46;;;;;;;;;;;;;;;;;;5066148;28;19936;-89
2020/12/14 11:31:14;;;;;;;;;;;;;;;;;;5076987;28;19928;-89
2020/12/14 11:34:01;;;;;;;;;;;;;;;;;;5076461;28;20007;-89
2020/12/14 11:36:29;;;;;;;;;;;;;;;;;;5069774;28;19924;-89
2020/12/14 11:38:56;;;;;;;;;;;;;;;;;;5060146;28;19952;-89
2020/12/14 11:41:23;;;;;;;;;;;;;;;;;;5066699;28;19935;-90
2020/12/14 11:43:50;;;;;;;;;;;;;;;;;;5059538;28;19951;-90
2020/12/14 11:46:18;;;;;;;;;;;;;;;;;;5072204;28;19929;-89
2020/12/14 11:48:45;;;;;;;;;;;;;;;;;;5070139;28;19928;-89
2020/12/14 11:51:12;;;;;;;;;;;;;;;;;;5067670;28;19925;-89
2020/12/14 11:53:40;;;;;;;;;;;;;;;;;;5062685;28;19932;-89
2020/12/14 11:56:07;;;;;;;;;;;;;;;;;;5065842;28;20272;-89
2020/12/14 11:58:34;;;;;;;;;;;;;;;;;;5066622;28;20398;-89
2020/12/14 12:01:01;;;;;;;;;;;;;;;;;;5070887;28;20374;-90
2020/12/14 12:03:29;;;;;;;;;;;;;;;;;;5064236;28;19929;-90
2020/12/14 12:05:57;;;;;;;;;;;;;;;;;;5067717;28;19928;-89
2020/12/14 12:08:25;;;;;;;;;;;;;;;;;;5057282;28;19975;-91
2020/12/14 12:10:52;;;;;;;;;;;;;;;;;;5067859;28;20164;-89
2020/12/14 12:13:20;;;;;;;;;;;;;;;;;;5077313;28;20360;-90
2020/12/14 12:15:47;;;;;;;;;;;;;;;;;;5076723;28;19928;-90
2020/12/14 12:18:15;;;;;;;;;;;;;;;;;;5069075;28;20318;-89
2020/12/14 12:20:42;;;;;;;;;;;;;;;;;;5064874;28;19928;-89
2020/12/14 12:23:10;;;;;;;;;;;;;;;;;;5076851;28;19992;-89
2020/12/14 12:25:37;;;;;;;;;;;;;;;;;;5076785;28;19924;-89
2020/12/14 12:28:05;;;;;;;;;;;;;;;;;;5078128;28;19932;-89
2020/12/14 12:30:34;;;;;;;;;;;;;;;;;;5078754;28;19928;-89
2020/12/14 12:33:02;;;;;;;;;;;;;;;;;;5069953;28;19935;-90
2020/12/14 12:35:29;;;;;;;;;;;;;;;;;;5064101;28;20372;-89
2020/12/14 12:37:57;;;;;;;;;;;;;;;;;;5062277;28;20394;-90
2020/12/14 12:40:24;;;;;;;;;;;;;;;;;;5055310;28;20011;-89
2020/12/14 12:42:52;;;;;;;;;;;;;;;;;;5057821;28;19931;-90
2020/12/14 12:45:20;;;;;;;;;;;;;;;;;;5055321;28;19929;-90
2020/12/14 12:47:47;;;;;;;;;;;;;;;;;;5065303;28;19928;-90
2020/12/14 12:50:16;;;;;;;;;;;;;;;;;;5057733;28;19929;-90
2020/12/14 12:52:43;;;;;;;;;;;;;;;;;;5071408;28;20326;-89
2020/12/14 12:55:10;;;;;;;;;;;;;;;;;;5060671;28;19978;-89
2020/12/14 12:57:38;;;;;;;;;;;;;;;;;;5061327;28;20351;-89
2020/12/14 13:00:06;;;;;;;;;;;;;;;;;;5053318;28;20291;-90
2020/12/14 13:02:33;;;;;;;;;;;;;;;;;;5057226;28;19928;-89
2020/12/14 13:05:01;;;;;;;;;;;;;;;;;;5052898;28;19925;-90
2020/12/14 13:07:28;;;;;;;;;;;;;;;;;;5056359;28;19928;-90
2020/12/14 13:09:55;;;;;;;;;;;;;;;;;;5052230;28;19929;-89
2020/12/14 13:12:25;;;;;;;;;;;;;;;;;;5063494;28;19932;-89
2020/12/14 13:14:52;;;;;;;;;;;;;;;;;;5053958;28;20296;-89
2020/12/14 13:17:20;;;;;;;;;;;;;;;;;;5052290;28;19925;-90
2020/12/14 13:19:48;;;;;;;;;;;;;;;;;;5056655;28;19928;-89
2020/12/14 13:22:16;;;;;;;;;;;;;;;;;;5063699;28;19932;-90
2020/12/14 13:24:43;;;;;;;;;;;;;;;;;;5072100;28;20015;-89
2020/12/14 13:27:11;;;;;;;;;;;;;;;;;;5055417;28;19930;-89
2020/12/14 13:29:39;;;;;;;;;;;;;;;;;;5054152;28;19931;-89
2020/12/14 13:32:07;;;;;;;;;;;;;;;;;;5065259;28;20276;-90
2020/12/14 13:34:35;;;;;;;;;;;;;;;;;;5047190;28;20291;-90
2020/12/14 13:37:03;;;;;;;;;;;;;;;;;;5060195;28;19929;-89
2020/12/14 13:39:31;;;;;;;;;;;;;;;;;;5069623;28;20453;-90
2020/12/14 13:41:59;;;;;;;;;;;;;;;;;;5064239;28;20016;-88
2020/12/14 13:44:27;;;;;;;;;;;;;;;;;;5058867;28;19964;-89
2020/12/14 13:46:54;;;;;;;;;;;;;;;;;;5069600;28;20330;-89
2020/12/14 13:49:21;;;;;;;;;;;;;;;;;;5062844;28;19928;-88
2020/12/14 13:51:49;;;;;;;;;;;;;;;;;;5067014;28;19939;-90
2020/12/14 13:54:16;;;;;;;;;;;;;;;;;;5068213;28;19928;-89
2020/12/14 13:56:43;;;;;;;;;;;;;;;;;;5060175;28;20335;-89
2020/12/14 13:59:11;;;;;;;;;;;;;;;;;;5059925;28;19988;-89
2020/12/14 14:01:38;;;;;;;;;;;;;;;;;;5059277;28;19924;-89
2020/12/14 14:04:06;;;;;;;;;;;;;;;;;;5065559;28;19929;-89
2020/12/14 14:06:33;;;;;;;;;;;;;;;;;;5060715;28;19933;-88
2020/12/14 14:09:01;;;;;;;;;;;;;;;;;;5060471;28;19928;-88
2020/12/14 14:11:30;;;;;;;;;;;;;;;;;;5055037;28;20212;-89
2020/12/14 14:13:58;;;;;;;;;;;;;;;;;;5056132;28;20031;-89
2020/12/14 14:16:26;;;;;;;;;;;;;;;;;;5067086;28;19936;-88
2020/12/14 14:18:54;;;;;;;;;;;;;;;;;;5061832;28;19932;-89
2020/12/14 14:21:21;;;;;;;;;;;;;;;;;;5060836;28;20315;-89
2020/12/14 14:23:49;;;;;;;;;;;;;;;;;;5054871;28;19929;-91
2020/12/14 14:26:17;;;;;;;;;;;;;;;;;;5066732;28;19928;-89
2020/12/14 14:28:44;;;;;;;;;;;;;;;;;;5058368;28;19928;-89
2020/12/14 14:31:12;;;;;;;;;;;;;;;;;;5064318;28;19932;-89
2020/12/14 14:33:40;;;;;;;;;;;;;;;;;;5067822;28;20380;-89
2020/12/14 14:36:09;;;;;;;;;;;;;;;;;;5058373;28;19928;-90
2020/12/14 14:38:36;;;;;;;;;;;;;;;;;;5052311;28;20441;-89
2020/12/14 14:41:04;;;;;;;;;;;;;;;;;;5056961;28;20013;-88
2020/12/14 14:43:32;;;;;;;;;;;;;;;;;;5054167;28;19929;-90
2020/12/14 14:46:00;;;;;;;;;;;;;;;;;;5061222;28;19928;-89
2020/12/14 14:48:28;;;;;;;;;;;;;;;;;;5059015;28;20290;-91
2020/12/14 14:50:55;;;;;;;;;;;;;;;;;;5053441;28;19933;-89
2020/12/14 14:53:23;;;;;;;;;;;;;;;;;;5047203;28;19968;-89
2020/12/14 14:55:52;;;;;;;;;;;;;;;;;;5057949;28;19924;-90
2020/12/14 14:58:19;;;;;;;;;;;;;;;;;;5055942;28;19929;-89
2020/12/14 15:00:47;;;;;;;;;;;;;;;;;;5050920;28;19936;-90
2020/12/14 15:03:15;;;;;;;;;;;;;;;;;;5055278;28;20372;-89
2020/12/14 15:06:00;;;;;;;;;;;;;;;;;;5056049;28;19928;-89
2020/12/14 15:08:28;;;;;;;;;;;;;;;;;;5053232;28;20372;-90
2020/12/14 15:10:55;;;;;;;;;;;;;;;;;;5056429;28;19947;-90
2020/12/14 15:13:23;;;;;;;;;;;;;;;;;;5061121;28;19930;-90
2020/12/14 15:15:50;;;;;;;;;;;;;;;;;;5058939;28;19968;-90
2020/12/14 15:18:18;;;;;;;;;;;;;;;;;;5054473;28;19928;-90
2020/12/14 15:20:45;;;;;;;;;;;;;;;;;;5050743;28;19940;-90
2020/12/14 15:23:13;;;;;;;;;;;;;;;;;;5051758;28;20050;-90
2020/12/14 15:25:40;;;;;;;;;;;;;;;;;;5051386;28;19933;-90
2020/12/14 15:28:08;;;;;;;;;;;;;;;;;;5064191;28;19929;-90
2020/12/14 15:30:35;;;;;;;;;;;;;;;;;;5055306;28;19986;-88
2020/12/14 15:33:02;;;;;;;;;;;;;;;;;;5054638;28;19974;-88
2020/12/14 15:35:30;;;;;;;;;;;;;;;;;;5057064;28;19928;-88
2020/12/14 15:37:57;;;;;;;;;;;;;;;;;;5068245;28;19924;-88
2020/12/14 15:40:26;;;;;;;;;;;;;;;;;;5068359;28;19934;-89
2020/12/14 15:42:53;;;;;;;;;;;;;;;;;;5063093;28;20019;-88
2020/12/14 15:45:21;;;;;;;;;;;;;;;;;;5062328;28;19970;-89
2020/12/14 15:47:48;;;;;;;;;;;;;;;;;;5061358;28;20017;-89
2020/12/14 15:50:16;;;;;;;;;;;;;;;;;;5066913;28;19968;-89
2020/12/14 15:52:47;;;;;;;;;;;;;;;;;;5058174;28;20189;-89
2020/12/14 15:55:15;;;;;;;;;;;;;;;;;;5059897;28;19937;-89
2020/12/14 15:57:43;;;;;;;;;;;;;;;;;;5059712;28;19928;-88
2020/12/14 16:00:11;;;;;;;;;;;;;;;;;;5060808;28;19929;-89
2020/12/14 16:02:38;;;;;;;;;;;;;;;;;;5059804;28;19928;-90
2020/12/14 16:05:07;;;;;;;;;;;;;;;;;;5057592;28;19928;-88
2020/12/14 16:07:34;;;;;;;;;;;;;;;;;;5069366;28;19924;-89
2020/12/14 16:10:01;;;;;;;;;;;;;;;;;;5053610;28;19968;-87
2020/12/14 16:12:29;;;;;;;;;;;;;;;;;;5062940;28;19929;-90
2020/12/14 16:14:56;;;;;;;;;;;;;;;;;;5065738;28;19929;-89
2020/12/14 16:17:24;;;;;;;;;;;;;;;;;;5056580;28;20445;-89
2020/12/14 16:19:51;;;;;;;;;;;;;;;;;;5053461;28;20423;-89
2020/12/14 16:22:19;;;;;;;;;;;;;;;;;;5068016;28;19928;-90
2020/12/14 16:24:47;;;;;;;;;;;;;;;;;;5063310;28;20026;-89
2020/12/14 16:27:14;;;;;;;;;;;;;;;;;;5059015;28;19935;-89
2020/12/14 16:29:41;;;;;;;;;;;;;;;;;;5052178;28;19928;-89
2020/12/14 16:32:09;;;;;;;;;;;;;;;;;;5064128;28;19928;-89
2020/12/14 16:34:36;;;;;;;;;;;;;;;;;;5052834;28;19924;-89
2020/12/14 16:37:03;;;;;;;;;;;;;;;;;;5063390;28;19952;-89
2020/12/14 16:39:31;;;;;;;;;;;;;;;;;;5061575;28;20220;-89
2020/12/14 16:41:59;;;;;;;;;;;;;;;;;;5060820;28;19928;-88
2020/12/14 16:44:26;;;;;;;;;;;;;;;;;;5060370;28;20399;-89
2020/12/14 16:46:54;;;;;;;;;;;;;;;;;;5067698;28;19982;-89
2020/12/14 16:49:21;;;;;;;;;;;;;;;;;;5059640;28;20471;-89
2020/12/14 16:51:49;;;;;;;;;;;;;;;;;;5064422;28;20287;-90
2020/12/14 16:54:17;;;;;;;;;;;;;;;;;;5058779;28;20391;-89